Grete Maersk — OYCY2 — position and weather

sailwx.info

Track history (hours):
 
Tides and Currents Weather Stations Pressure Air Temp Water Temp Dewpoint Dewpoint Depression Visibility Wind Speed Wind Dir Waves Ship Positions

Grete Maersk

Last reported at 2018-Apr-13 09:09 UTC. Time now 2018-Apr-21 15:40 UTC.
Position N 01°14' E 103°25'.
Warning: this ship's position is 8 days out of date.

MMSI: 218824136.

Date/timePositionNaut miles runAvg speedWind from/ knotsBaromVisibWave heightAir tempDewpointWater temp
2018-Apr-13 09:09N 01°14' E 103°25'418.6
2018-Apr-13 08:56N 01°13' E 103°29'818.5
2018-Apr-13 08:30N 01°11' E 103°36'815.3
2018-Apr-13 07:59N 01°09' E 103°44'612.7
2018-Apr-13 07:30N 01°11' E 103°49'2 4.0
2018-Apr-13 07:00N 01°13' E 103°48'4 8.4
2018-Apr-13 06:30N 01°16' E 103°45'1 1.2
2018-Apr-13 06:00N 01°17' E 103°45'0 0.2
2018-Apr-13 05:30N 01°17' E 103°45'0 0.0
2018-Apr-13 04:54N 01°17' E 103°45'0 0.0
2018-Apr-13 04:30N 01°17' E 103°45'0 0.0
2018-Apr-13 03:54N 01°17' E 103°45'0 0.0
2018-Apr-13 03:27N 01°17' E 103°45'0 0.0
2018-Apr-13 03:00N 01°17' E 103°45'0 0.0
2018-Apr-13 02:30N 01°17' E 103°45'0 0.0
2018-Apr-13 01:57N 01°17' E 103°45'0 0.0
2018-Apr-13 01:30N 01°17' E 103°45'0 0.0
2018-Apr-13 00:57N 01°17' E 103°45'0 0.0
2018-Apr-13 00:30N 01°17' E 103°45'0 0.0
2018-Apr-12 23:57N 01°17' E 103°45'0 0.0
2018-Apr-12 23:27N 01°17' E 103°45'0 0.0
2018-Apr-12 22:57N 01°17' E 103°45'0 0.0
2018-Apr-12 22:30N 01°17' E 103°45'0 0.0
2018-Apr-12 21:57N 01°17' E 103°45'0 0.0
2018-Apr-12 21:27N 01°17' E 103°45'0 0.0
2018-Apr-12 20:51N 01°17' E 103°45'0 0.0
2018-Apr-12 20:21N 01°17' E 103°45'0 0.0
2018-Apr-12 20:00N 01°17' E 103°45'0 0.0
2018-Apr-12 19:30N 01°17' E 103°45'0 0.0
2018-Apr-12 18:51N 01°17' E 103°45'0 0.0
2018-Apr-12 18:27N 01°17' E 103°45'0 0.0
2018-Apr-12 17:54N 01°17' E 103°45'0 0.0
2018-Apr-12 17:30N 01°17' E 103°45'0 0.0
2018-Apr-12 17:00N 01°17' E 103°45'0 0.0
2018-Apr-12 16:30N 01°17' E 103°45'0 0.0
2018-Apr-12 15:57N 01°17' E 103°45'0 0.0
2018-Apr-12 15:30N 01°17' E 103°45'0 0.0
2018-Apr-12 14:57N 01°17' E 103°45'0 0.0
2018-Apr-12 14:30N 01°17' E 103°45'0 0.0
2018-Apr-12 13:57N 01°17' E 103°45'0 0.0
2018-Apr-12 13:27N 01°17' E 103°45'0 0.0
2018-Apr-12 12:57N 01°17' E 103°45'0 0.0
2018-Apr-12 12:27N 01°17' E 103°45'0 0.0
2018-Apr-12 11:57N 01°17' E 103°45'0 0.0
2018-Apr-12 11:30N 01°17' E 103°45'0 0.0
2018-Apr-12 09:45N 01°17' E 103°45'0 0.0
2018-Apr-12 09:30N 01°17' E 103°45'0 0.0
2018-Apr-12 08:57N 01°17' E 103°45'0 0.0
2018-Apr-12 08:30N 01°17' E 103°45'0 0.0
2018-Apr-12 07:57N 01°17' E 103°45'0 0.0
2018-Apr-12 07:30N 01°17' E 103°45'0 0.0
2018-Apr-12 06:58N 01°17' E 103°45'0 0.5
2018-Apr-12 06:30N 01°17' E 103°45'5 8.2
2018-Apr-12 05:57N 01°13' E 103°48'510.6
2018-Apr-12 05:30N 01°13' E 103°53'2 4.3
2018-Apr-12 05:00N 01°14' E 103°55'3 5.2
2018-Apr-12 04:30N 01°15' E 103°57'3 5.3
2018-Apr-12 03:58N 01°16' E 104°00'3 7.5
2018-Apr-12 03:30N 01°16' E 104°03'  
2018-Apr-05 15:57N 22°29' E 119°51'920.0
2018-Apr-05 15:29N 22°31' E 120°01'816.9
2018-Apr-05 15:00N 22°32' E 120°10'714.3
2018-Apr-05 14:30N 22°33' E 120°18'2 3.6
2018-Apr-05 14:00N 22°33' E 120°20'0 0.0
2018-Apr-05 13:26N 22°33' E 120°20'0 0.0
2018-Apr-05 12:58N 22°33' E 120°20'0 0.0
2018-Apr-05 12:29N 22°33' E 120°20'0 0.0
2018-Apr-05 11:59N 22°33' E 120°20'0 0.0
2018-Apr-05 11:29N 22°33' E 120°20'0 0.0
2018-Apr-05 10:58N 22°33' E 120°20'0 0.0
2018-Apr-05 10:29N 22°33' E 120°20'0 0.0
2018-Apr-05 09:59N 22°33' E 120°20'0 0.0
2018-Apr-05 09:29N 22°33' E 120°20'0 0.0
2018-Apr-05 08:59N 22°33' E 120°20'0 0.0
2018-Apr-05 08:29N 22°33' E 120°20'0 0.0
2018-Apr-05 07:59N 22°33' E 120°20'0 0.0
2018-Apr-05 07:29N 22°33' E 120°20'0 0.0
2018-Apr-05 06:59N 22°33' E 120°20'0 0.0
2018-Apr-05 06:26N 22°33' E 120°20'0 0.0
2018-Apr-05 05:59N 22°33' E 120°20'0 0.0
2018-Apr-05 05:29N 22°33' E 120°20'0 0.0
2018-Apr-05 04:56N 22°33' E 120°20'0 0.0
2018-Apr-05 04:29N 22°33' E 120°20'0 0.0
2018-Apr-05 03:59N 22°33' E 120°20'0 0.0
2018-Apr-05 03:29N 22°33' E 120°20'0 0.0
2018-Apr-05 02:55N 22°33' E 120°20'0 0.0
2018-Apr-05 02:29N 22°33' E 120°20'0 0.0
2018-Apr-05 01:59N 22°33' E 120°20'0 0.0
2018-Apr-05 01:29N 22°33' E 120°20'0 0.0
2018-Apr-05 00:59N 22°33' E 120°20'0 0.0
2018-Apr-05 00:29N 22°33' E 120°20'0 0.0
2018-Apr-04 23:59N 22°33' E 120°20'0 0.0
2018-Apr-04 23:29N 22°33' E 120°20'0 0.0
2018-Apr-04 22:59N 22°33' E 120°20'0 0.0
2018-Apr-04 22:29N 22°33' E 120°20'0 0.0
2018-Apr-04 21:59N 22°33' E 120°20'0 0.0
2018-Apr-04 21:29N 22°33' E 120°20'0 0.0
2018-Apr-04 20:59N 22°33' E 120°20'0 0.0
2018-Apr-04 20:29N 22°33' E 120°20'0 0.0
2018-Apr-04 19:59N 22°33' E 120°20'0 0.0
2018-Apr-04 19:29N 22°33' E 120°20'0 0.0
2018-Apr-04 18:59N 22°33' E 120°20'0 0.0
2018-Apr-04 18:29N 22°33' E 120°20'0 0.0
2018-Apr-04 17:56N 22°33' E 120°20'0 0.0
2018-Apr-04 17:29N 22°33' E 120°20'0 0.0
2018-Apr-04 16:59N 22°33' E 120°20'0 0.0
2018-Apr-04 16:29N 22°33' E 120°20'0 0.3
2018-Apr-04 16:00N 22°33' E 120°20'2 4.8
2018-Apr-04 15:30N 22°33' E 120°17'1 2.8
2018-Apr-04 15:01N 22°32' E 120°16'3 6.1
2018-Apr-04 14:31N 22°31' E 120°12'714.7
2018-Apr-04 14:00N 22°31' E 120°05'816.6
2018-Apr-04 13:30N 22°31' E 119°55'1019.2
2018-Apr-04 13:00N 22°40' E 119°53'1223.0
2018-Apr-04 12:28N 22°52' E 119°52'1122.5
2018-Apr-04 12:00N 23°03' E 119°52'1222.8
2018-Apr-04 11:27N 23°15' E 119°52'1222.9
2018-Apr-04 10:56N 23°27' E 119°50'1023.4
2018-Apr-04 10:31N 23°37' E 119°49'1224.0
2018-Apr-04 10:00N 23°48' E 119°44'4423.6
2018-Apr-04 08:08N 24°01' E 118°58'324.4
2018-Apr-04 08:01N 24°02' E 118°54'1224.0
2018-Apr-04 07:31N 24°05' E 118°42'1122.7
2018-Apr-04 07:00N 24°08' E 118°30'611.1
2018-Apr-04 06:30N 24°10' E 118°24'2 4.3
2018-Apr-04 06:00N 24°10' E 118°22'611.7
2018-Apr-04 05:30N 24°14' E 118°16'5 9.7
2018-Apr-04 05:00N 24°17' E 118°13'4 9.0
2018-Apr-04 04:30N 24°21' E 118°10'4 8.6
2018-Apr-04 04:00N 24°24' E 118°06'510.9
2018-Apr-04 03:31N 24°26' E 118°01'1 1.5
2018-Apr-04 03:01N 24°27' E 118°00'0 0.0
2018-Apr-04 02:30N 24°27' E 118°00'0 0.0
2018-Apr-04 02:00N 24°27' E 118°00'0 0.0
2018-Apr-04 01:30N 24°27' E 118°00'0 0.0
2018-Apr-04 01:00N 24°27' E 118°00'0 0.0
2018-Apr-04 00:30N 24°27' E 118°00'0 0.0
2018-Apr-04 00:00N 24°27' E 118°00'0 0.0
2018-Apr-03 23:30N 24°27' E 118°00'0 0.0
2018-Apr-03 23:00N 24°27' E 118°00'0 0.0
2018-Apr-03 22:30N 24°27' E 118°00'0 0.0
2018-Apr-03 22:00N 24°27' E 118°00'0 0.0
2018-Apr-03 21:30N 24°27' E 118°00'0 0.0
2018-Apr-03 21:00N 24°27' E 118°00'0 0.0
2018-Apr-03 20:30N 24°27' E 118°00'0 0.0
2018-Apr-03 19:57N 24°27' E 118°00'0 0.0
2018-Apr-03 19:30N 24°27' E 118°00'0 0.0
2018-Apr-03 19:00N 24°27' E 118°00'0 0.0
2018-Apr-03 18:30N 24°27' E 118°00'0 0.0
2018-Apr-03 18:00N 24°27' E 118°00'0 0.0
2018-Apr-03 17:30N 24°27' E 118°00'0 0.0
2018-Apr-03 17:00N 24°27' E 118°00'0 0.0
2018-Apr-03 16:30N 24°27' E 118°00'0 0.0
2018-Apr-03 16:00N 24°27' E 118°00'0 0.0
2018-Apr-03 15:30N 24°27' E 118°00'0 0.0
2018-Apr-03 15:00N 24°27' E 118°00'0 0.0
2018-Apr-03 14:30N 24°27' E 118°00'0 0.0
2018-Apr-03 14:01N 24°27' E 118°00'0 0.3
2018-Apr-03 13:31N 24°27' E 118°00'3 6.0
2018-Apr-03 13:00N 24°26' E 118°04'510.8
2018-Apr-03 12:31N 24°22' E 118°08'4 8.2
2018-Apr-03 12:01N 24°19' E 118°11'4 8.3
2018-Apr-03 11:30N 24°16' E 118°14'4 8.4
2018-Apr-03 11:00N 24°13' E 118°17'5 9.9
2018-Apr-03 10:30N 24°13' E 118°23'1 2.9
2018-Apr-03 10:00N 24°12' E 118°23'0 0.8
2018-Apr-03 09:30N 24°12' E 118°23'  
Track history (hours):
 
Tides and Currents Weather Stations Pressure Air Temp Water Temp Dewpoint Dewpoint Depression Visibility Wind Speed Wind Dir Waves Ship Positions

Grete Maersk

Last reported at 2018-Apr-13 09:09 UTC. Time now 2018-Apr-21 15:40 UTC.
Position N 01°14' E 103°25'.
Warning: this ship's position is 8 days out of date.

MMSI: 218824136.

Date/timePositionNaut miles runAvg speedWind from/ knotsBaromVisibWave heightAir tempDewpointWater temp
2018-Apr-13 09:09N 01°14' E 103°25'418.6
2018-Apr-13 08:56N 01°13' E 103°29'818.5
2018-Apr-13 08:30N 01°11' E 103°36'815.3
2018-Apr-13 07:59N 01°09' E 103°44'612.7
2018-Apr-13 07:30N 01°11' E 103°49'2 4.0
2018-Apr-13 07:00N 01°13' E 103°48'4 8.4
2018-Apr-13 06:30N 01°16' E 103°45'1 1.2
2018-Apr-13 06:00N 01°17' E 103°45'0 0.2
2018-Apr-13 05:30N 01°17' E 103°45'0 0.0
2018-Apr-13 04:54N 01°17' E 103°45'0 0.0
2018-Apr-13 04:30N 01°17' E 103°45'0 0.0
2018-Apr-13 03:54N 01°17' E 103°45'0 0.0
2018-Apr-13 03:27N 01°17' E 103°45'0 0.0
2018-Apr-13 03:00N 01°17' E 103°45'0 0.0
2018-Apr-13 02:30N 01°17' E 103°45'0 0.0
2018-Apr-13 01:57N 01°17' E 103°45'0 0.0
2018-Apr-13 01:30N 01°17' E 103°45'0 0.0
2018-Apr-13 00:57N 01°17' E 103°45'0 0.0
2018-Apr-13 00:30N 01°17' E 103°45'0 0.0
2018-Apr-12 23:57N 01°17' E 103°45'0 0.0
2018-Apr-12 23:27N 01°17' E 103°45'0 0.0
2018-Apr-12 22:57N 01°17' E 103°45'0 0.0
2018-Apr-12 22:30N 01°17' E 103°45'0 0.0
2018-Apr-12 21:57N 01°17' E 103°45'0 0.0
2018-Apr-12 21:27N 01°17' E 103°45'0 0.0
2018-Apr-12 20:51N 01°17' E 103°45'0 0.0
2018-Apr-12 20:21N 01°17' E 103°45'0 0.0
2018-Apr-12 20:00N 01°17' E 103°45'0 0.0
2018-Apr-12 19:30N 01°17' E 103°45'0 0.0
2018-Apr-12 18:51N 01°17' E 103°45'0 0.0
2018-Apr-12 18:27N 01°17' E 103°45'0 0.0
2018-Apr-12 17:54N 01°17' E 103°45'0 0.0
2018-Apr-12 17:30N 01°17' E 103°45'0 0.0
2018-Apr-12 17:00N 01°17' E 103°45'0 0.0
2018-Apr-12 16:30N 01°17' E 103°45'0 0.0
2018-Apr-12 15:57N 01°17' E 103°45'0 0.0
2018-Apr-12 15:30N 01°17' E 103°45'0 0.0
2018-Apr-12 14:57N 01°17' E 103°45'0 0.0
2018-Apr-12 14:30N 01°17' E 103°45'0 0.0
2018-Apr-12 13:57N 01°17' E 103°45'0 0.0
2018-Apr-12 13:27N 01°17' E 103°45'0 0.0
2018-Apr-12 12:57N 01°17' E 103°45'0 0.0
2018-Apr-12 12:27N 01°17' E 103°45'0 0.0
2018-Apr-12 11:57N 01°17' E 103°45'0 0.0
2018-Apr-12 11:30N 01°17' E 103°45'0 0.0
2018-Apr-12 09:45N 01°17' E 103°45'0 0.0
2018-Apr-12 09:30N 01°17' E 103°45'0 0.0
2018-Apr-12 08:57N 01°17' E 103°45'0 0.0
2018-Apr-12 08:30N 01°17' E 103°45'0 0.0
2018-Apr-12 07:57N 01°17' E 103°45'0 0.0
2018-Apr-12 07:30N 01°17' E 103°45'0 0.0
2018-Apr-12 06:58N 01°17' E 103°45'0 0.5
2018-Apr-12 06:30N 01°17' E 103°45'5 8.2
2018-Apr-12 05:57N 01°13' E 103°48'510.6
2018-Apr-12 05:30N 01°13' E 103°53'2 4.3
2018-Apr-12 05:00N 01°14' E 103°55'3 5.2
2018-Apr-12 04:30N 01°15' E 103°57'3 5.3
2018-Apr-12 03:58N 01°16' E 104°00'3 7.5
2018-Apr-12 03:30N 01°16' E 104°03'  
2018-Apr-05 15:57N 22°29' E 119°51'920.0
2018-Apr-05 15:29N 22°31' E 120°01'816.9
2018-Apr-05 15:00N 22°32' E 120°10'714.3
2018-Apr-05 14:30N 22°33' E 120°18'2 3.6
2018-Apr-05 14:00N 22°33' E 120°20'0 0.0
2018-Apr-05 13:26N 22°33' E 120°20'0 0.0
2018-Apr-05 12:58N 22°33' E 120°20'0 0.0
2018-Apr-05 12:29N 22°33' E 120°20'0 0.0
2018-Apr-05 11:59N 22°33' E 120°20'0 0.0
2018-Apr-05 11:29N 22°33' E 120°20'0 0.0
2018-Apr-05 10:58N 22°33' E 120°20'0 0.0
2018-Apr-05 10:29N 22°33' E 120°20'0 0.0
2018-Apr-05 09:59N 22°33' E 120°20'0 0.0
2018-Apr-05 09:29N 22°33' E 120°20'0 0.0
2018-Apr-05 08:59N 22°33' E 120°20'0 0.0
2018-Apr-05 08:29N 22°33' E 120°20'0 0.0
2018-Apr-05 07:59N 22°33' E 120°20'0 0.0
2018-Apr-05 07:29N 22°33' E 120°20'0 0.0
2018-Apr-05 06:59N 22°33' E 120°20'0 0.0
2018-Apr-05 06:26N 22°33' E 120°20'0 0.0
2018-Apr-05 05:59N 22°33' E 120°20'0 0.0
2018-Apr-05 05:29N 22°33' E 120°20'0 0.0
2018-Apr-05 04:56N 22°33' E 120°20'0 0.0
2018-Apr-05 04:29N 22°33' E 120°20'0 0.0
2018-Apr-05 03:59N 22°33' E 120°20'0 0.0
2018-Apr-05 03:29N 22°33' E 120°20'0 0.0
2018-Apr-05 02:55N 22°33' E 120°20'0 0.0
2018-Apr-05 02:29N 22°33' E 120°20'0 0.0
2018-Apr-05 01:59N 22°33' E 120°20'0 0.0
2018-Apr-05 01:29N 22°33' E 120°20'0 0.0
2018-Apr-05 00:59N 22°33' E 120°20'0 0.0
2018-Apr-05 00:29N 22°33' E 120°20'0 0.0
2018-Apr-04 23:59N 22°33' E 120°20'0 0.0
2018-Apr-04 23:29N 22°33' E 120°20'0 0.0
2018-Apr-04 22:59N 22°33' E 120°20'0 0.0
2018-Apr-04 22:29N 22°33' E 120°20'0 0.0
2018-Apr-04 21:59N 22°33' E 120°20'0 0.0
2018-Apr-04 21:29N 22°33' E 120°20'0 0.0
2018-Apr-04 20:59N 22°33' E 120°20'0 0.0
2018-Apr-04 20:29N 22°33' E 120°20'0 0.0
2018-Apr-04 19:59N 22°33' E 120°20'0 0.0
2018-Apr-04 19:29N 22°33' E 120°20'0 0.0
2018-Apr-04 18:59N 22°33' E 120°20'0 0.0
2018-Apr-04 18:29N 22°33' E 120°20'0 0.0
2018-Apr-04 17:56N 22°33' E 120°20'0 0.0
2018-Apr-04 17:29N 22°33' E 120°20'0 0.0
2018-Apr-04 16:59N 22°33' E 120°20'0 0.0
2018-Apr-04 16:29N 22°33' E 120°20'0 0.3
2018-Apr-04 16:00N 22°33' E 120°20'2 4.8
2018-Apr-04 15:30N 22°33' E 120°17'1 2.8
2018-Apr-04 15:01N 22°32' E 120°16'3 6.1
2018-Apr-04 14:31N 22°31' E 120°12'714.7
2018-Apr-04 14:00N 22°31' E 120°05'816.6
2018-Apr-04 13:30N 22°31' E 119°55'1019.2
2018-Apr-04 13:00N 22°40' E 119°53'1223.0
2018-Apr-04 12:28N 22°52' E 119°52'1122.5
2018-Apr-04 12:00N 23°03' E 119°52'1222.8
2018-Apr-04 11:27N 23°15' E 119°52'1222.9
2018-Apr-04 10:56N 23°27' E 119°50'1023.4
2018-Apr-04 10:31N 23°37' E 119°49'1224.0
2018-Apr-04 10:00N 23°48' E 119°44'4423.6
2018-Apr-04 08:08N 24°01' E 118°58'324.4
2018-Apr-04 08:01N 24°02' E 118°54'1224.0
2018-Apr-04 07:31N 24°05' E 118°42'1122.7
2018-Apr-04 07:00N 24°08' E 118°30'611.1
2018-Apr-04 06:30N 24°10' E 118°24'2 4.3
2018-Apr-04 06:00N 24°10' E 118°22'611.7
2018-Apr-04 05:30N 24°14' E 118°16'5 9.7
2018-Apr-04 05:00N 24°17' E 118°13'4 9.0
2018-Apr-04 04:30N 24°21' E 118°10'4 8.6
2018-Apr-04 04:00N 24°24' E 118°06'510.9
2018-Apr-04 03:31N 24°26' E 118°01'1 1.5
2018-Apr-04 03:01N 24°27' E 118°00'0 0.0
2018-Apr-04 02:30N 24°27' E 118°00'0 0.0
2018-Apr-04 02:00N 24°27' E 118°00'0 0.0
2018-Apr-04 01:30N 24°27' E 118°00'0 0.0
2018-Apr-04 01:00N 24°27' E 118°00'0 0.0
2018-Apr-04 00:30N 24°27' E 118°00'0 0.0
2018-Apr-04 00:00N 24°27' E 118°00'0 0.0
2018-Apr-03 23:30N 24°27' E 118°00'0 0.0
2018-Apr-03 23:00N 24°27' E 118°00'0 0.0
2018-Apr-03 22:30N 24°27' E 118°00'0 0.0
2018-Apr-03 22:00N 24°27' E 118°00'0 0.0
2018-Apr-03 21:30N 24°27' E 118°00'0 0.0
2018-Apr-03 21:00N 24°27' E 118°00'0 0.0
2018-Apr-03 20:30N 24°27' E 118°00'0 0.0
2018-Apr-03 19:57N 24°27' E 118°00'0 0.0
2018-Apr-03 19:30N 24°27' E 118°00'0 0.0
2018-Apr-03 19:00N 24°27' E 118°00'0 0.0
2018-Apr-03 18:30N 24°27' E 118°00'0 0.0
2018-Apr-03 18:00N 24°27' E 118°00'0 0.0
2018-Apr-03 17:30N 24°27' E 118°00'0 0.0
2018-Apr-03 17:00N 24°27' E 118°00'0 0.0
2018-Apr-03 16:30N 24°27' E 118°00'0 0.0
2018-Apr-03 16:00N 24°27' E 118°00'0 0.0
2018-Apr-03 15:30N 24°27' E 118°00'0 0.0
2018-Apr-03 15:00N 24°27' E 118°00'0 0.0
2018-Apr-03 14:30N 24°27' E 118°00'0 0.0
2018-Apr-03 14:01N 24°27' E 118°00'0 0.3
2018-Apr-03 13:31N 24°27' E 118°00'3 6.0
2018-Apr-03 13:00N 24°26' E 118°04'510.8
2018-Apr-03 12:31N 24°22' E 118°08'4 8.2
2018-Apr-03 12:01N 24°19' E 118°11'4 8.3
2018-Apr-03 11:30N 24°16' E 118°14'4 8.4
2018-Apr-03 11:00N 24°13' E 118°17'5 9.9
2018-Apr-03 10:30N 24°13' E 118°23'1 2.9
2018-Apr-03 10:00N 24°12' E 118°23'0 0.8
2018-Apr-03 09:30N 24°12' E 118°23'  

Dump ship's entire track history